Time;durP1;ratioP1;P1;durP2;ratioP2;P2;SDS_P1;SDS_P2;PMS_P1;PMS_P2;Temp;Humidity;BMP_temperature;BMP_pressure;BME280_temperature;BME280_humidity;BME280_pressure;Samples;Min_cycle;Max_cycle;Signal;HPM_P1;HPM_P2
2022/12/06 00:01:44;;;;;;;9.10;6.43;;;;;;;4.45;92.54;101774.88;6068386;29;20602;-79
2022/12/06 00:05:06;;;;;;;6.13;5.33;;;;;;;4.40;92.96;101765.38;6052846;29;20260;-79
2022/12/06 00:08:27;;;;;;;11.93;5.63;;;;;;;4.45;93.17;101771.34;6065906;29;20308;-77
2022/12/06 00:11:48;;;;;;;6.17;4.87;;;;;;;4.48;93.35;101768.53;6071187;29;20307;-77
2022/12/06 00:15:11;;;;;;;7.80;5.23;;;;;;;4.47;93.13;101765.00;6050722;29;20245;-78
2022/12/06 00:18:34;;;;;;;5.73;4.70;;;;;;;4.34;94.12;101763.84;6074488;29;20513;-78
2022/12/06 00:21:55;;;;;;;9.00;5.60;;;;;;;4.45;93.94;101769.53;6070602;29;20400;-78
2022/12/06 00:25:16;;;;;;;9.60;5.23;;;;;;;4.48;93.83;101760.53;6053948;29;20340;-78
2022/12/06 00:28:39;;;;;;;11.77;5.43;;;;;;;4.56;93.39;101756.53;6071393;29;20680;-78
2022/12/06 00:32:02;;;;;;;7.30;5.93;;;;;;;4.63;93.13;101760.59;6070142;29;20237;-78
2022/12/06 00:35:22;;;;;;;7.20;6.10;;;;;;;4.66;92.50;101755.13;6068482;29;20229;-78
2022/12/06 00:38:44;;;;;;;12.27;6.83;;;;;;;4.64;93.07;101759.69;6047717;29;20237;-78
2022/12/06 00:42:07;;;;;;;6.13;5.20;;;;;;;4.57;93.49;101752.91;6065603;29;20230;-77
2022/12/06 00:45:29;;;;;;;9.47;4.77;;;;;;;4.64;93.63;101751.69;6064372;29;20265;-79
2022/12/06 00:48:55;;;;;;;11.50;5.83;;;;;;;4.56;94.06;101745.84;6066027;29;20262;-80
2022/12/06 00:52:16;;;;;;;7.83;5.60;;;;;;;4.66;93.62;101749.78;6070127;29;20233;-79
2022/12/06 00:55:37;;;;;;;8.70;6.63;;;;;;;4.65;94.16;101747.22;6062446;29;20240;-77
2022/12/06 00:58:58;;;;;;;11.00;6.03;;;;;;;4.74;93.97;101747.59;6069415;29;20330;-79
2022/12/06 01:02:19;;;;;;;8.43;5.73;;;;;;;4.70;93.67;101735.34;6054840;29;20333;-78
2022/12/06 01:05:45;;;;;;;6.33;5.63;;;;;;;4.56;94.42;101734.31;6062438;29;20586;-79
2022/12/06 01:09:09;;;;;;;6.90;4.83;;;;;;;4.64;94.83;101737.44;6059972;29;20221;-79
2022/12/06 01:12:30;;;;;;;10.83;6.87;;;;;;;4.59;94.69;101735.00;6058638;29;20241;-80
2022/12/06 01:15:53;;;;;;;4.53;4.00;;;;;;;4.62;95.15;101737.53;6061170;29;20242;-79
2022/12/06 01:19:13;;;;;;;7.80;4.93;;;;;;;4.79;94.56;101734.00;6062990;29;20229;-78
2022/12/06 01:22:36;;;;;;;6.37;4.27;;;;;;;4.93;93.86;101736.81;6057903;29;20229;-77
2022/12/06 01:25:57;;;;;;;7.20;5.33;;;;;;;5.02;93.88;101736.38;6062608;29;20499;-78
2022/12/06 01:29:17;;;;;;;6.00;4.47;;;;;;;5.11;93.44;101737.69;6067891;29;20624;-79
2022/12/06 01:32:39;;;;;;;6.33;4.10;;;;;;;5.13;93.46;101731.28;6064501;29;20263;-77
2022/12/06 01:36:02;;;;;;;5.23;4.73;;;;;;;5.20;93.08;101735.38;6064389;29;20312;-76
2022/12/06 01:39:25;;;;;;;8.63;4.20;;;;;;;5.24;92.73;101725.38;6074599;29;20229;-78
2022/12/06 01:42:45;;;;;;;3.97;3.60;;;;;;;5.25;92.89;101732.47;6064666;29;20502;-78
2022/12/06 01:46:20;;;;;;;6.30;4.47;;;;;;;5.27;92.43;101726.09;6060817;29;20252;-78
2022/12/06 01:49:44;;;;;;;4.70;3.13;;;;;;;5.31;92.40;101721.44;6065062;29;20229;-78
2022/12/06 01:53:08;;;;;;;3.70;3.37;;;;;;;5.25;92.36;101727.13;6068180;29;20523;-78
2022/12/06 01:56:31;;;;;;;3.77;3.03;;;;;;;5.24;92.83;101728.06;6063627;29;20244;-79
2022/12/06 01:59:54;;;;;;;7.27;3.57;;;;;;;5.20;93.21;101724.69;6061530;29;20237;-79
2022/12/06 02:03:19;;;;;;;3.63;2.90;;;;;;;5.17;93.49;101727.53;6067065;29;20261;-77
2022/12/06 02:06:42;;;;;;;4.73;3.60;;;;;;;5.21;93.44;101722.91;6040787;29;20217;-79
2022/12/06 02:10:04;;;;;;;3.40;3.10;;;;;;;5.22;93.79;101724.59;6066416;29;20245;-79
2022/12/06 02:13:26;;;;;;;5.83;3.53;;;;;;;5.26;93.56;101719.03;6067197;29;20237;-78
2022/12/06 02:17:02;;;;;;;5.57;3.33;;;;;;;5.26;93.59;101711.00;6061943;29;20241;-79
2022/12/06 02:20:32;;;;;;;3.03;2.73;;;;;;;5.24;93.47;101707.53;6067729;29;20229;-77
2022/12/06 02:24:16;;;;;;;4.27;3.87;;;;;;;5.22;93.79;101706.78;6064659;29;20224;-77
2022/12/06 02:28:08;;;;;;;5.70;2.90;;;;;;;5.23;94.23;101699.63;6064639;29;20234;-78
2022/12/06 02:31:36;;;;;;;2.90;2.50;;;;;;;5.27;93.74;101693.16;6064810;29;20225;-78
2022/12/06 02:35:06;;;;;;;4.13;2.97;;;;;;;5.29;93.50;101692.16;6065577;29;20255;-79
2022/12/06 02:38:34;;;;;;;4.43;2.50;;;;;;;5.29;93.45;101692.16;6061756;29;22220;-77
2022/12/06 02:42:02;;;;;;;2.27;1.93;;;;;;;5.35;93.46;101690.94;6061594;29;20229;-78
2022/12/06 02:45:27;;;;;;;3.23;2.93;;;;;;;5.42;93.33;101695.03;6064349;29;20316;-78
2022/12/06 02:48:53;;;;;;;5.27;2.23;;;;;;;5.42;93.12;101695.03;6071657;29;20232;-79
2022/12/06 02:52:19;;;;;;;3.27;2.37;;;;;;;5.38;93.75;101693.47;6063799;29;20561;-78
2022/12/06 02:55:41;;;;;;;1.93;1.83;;;;;;;5.32;93.56;101691.97;6057931;29;20265;-78
2022/12/06 02:59:03;;;;;;;3.23;3.03;;;;;;;5.27;94.09;101696.72;6061783;29;20651;-76
2022/12/06 03:02:24;;;;;;;1.97;1.67;;;;;;;5.33;94.10;101687.47;6062768;29;20225;-77
2022/12/06 03:06:02;;;;;;;3.23;2.80;;;;;;;5.31;94.06;101686.72;6063844;29;20237;-78
2022/12/06 03:09:36;;;;;;;3.00;2.23;;;;;;;5.36;94.50;101684.66;6059078;29;20550;-78
2022/12/06 03:13:06;;;;;;;2.30;2.10;;;;;;;5.36;94.35;101682.00;6066096;29;20693;-79
2022/12/06 03:16:30;;;;;;;2.03;1.87;;;;;;;5.41;93.97;101687.94;6058075;29;20268;-78
2022/12/06 03:19:57;;;;;;;2.73;2.00;;;;;;;5.36;94.33;101682.81;6056812;29;20611;-79
2022/12/06 03:23:24;;;;;;;1.60;1.50;;;;;;;5.45;93.80;101686.81;6061447;29;20241;-78
2022/12/06 03:26:48;;;;;;;2.17;1.97;;;;;;;5.47;94.03;101676.91;6036326;29;20236;-78
2022/12/06 03:30:13;;;;;;;1.30;1.20;;;;;;;5.49;93.67;101677.66;6050983;29;20260;-77
2022/12/06 03:33:37;;;;;;;1.30;1.27;;;;;;;5.44;93.71;101674.41;6071847;29;20233;-78
2022/12/06 03:37:02;;;;;;;1.27;1.10;;;;;;;5.45;93.91;101681.47;6069049;29;20248;-78
2022/12/06 03:40:28;;;;;;;1.93;1.33;;;;;;;5.41;93.99;101685.25;6053889;28;20559;-79
2022/12/06 03:43:49;;;;;;;1.70;1.60;;;;;;;5.30;95.07;101682.31;6066148;29;20273;-78
2022/12/06 03:47:15;;;;;;;1.90;1.23;;;;;;;5.40;94.87;101679.03;6058735;29;20225;-77
2022/12/06 03:50:41;;;;;;;2.10;1.30;;;;;;;5.44;94.57;101674.41;6059372;29;20258;-78
2022/12/06 03:54:05;;;;;;;0.90;0.90;;;;;;;5.48;94.77;101670.63;6071631;29;20320;-78
2022/12/06 03:57:27;;;;;;;1.47;1.37;;;;;;;5.49;94.18;101672.31;6070716;29;20816;-78
2022/12/06 04:00:49;;;;;;;2.43;1.60;;;;;;;5.52;93.87;101667.69;6053808;29;20244;-78
2022/12/06 04:04:10;;;;;;;1.23;1.13;;;;;;;5.52;93.56;101661.47;6068471;29;20264;-77
2022/12/06 04:07:31;;;;;;;1.97;1.37;;;;;;;5.53;93.87;101653.34;6070670;29;20233;-78
2022/12/06 04:10:52;;;;;;;1.07;0.90;;;;;;;5.55;94.19;101666.63;6060972;29;20248;-77
2022/12/06 04:14:15;;;;;;;1.57;1.00;;;;;;;5.52;93.90;101661.47;6072173;29;20532;-78
2022/12/06 04:24:54;;;;;;;1.63;1.33;;;;;;;5.56;93.88;101650.53;6063859;29;20221;-78
2022/12/06 04:39:12;;;;;;;1.23;1.10;;;;;;;5.45;94.73;101638.69;6061622;29;20237;-79
2022/12/06 04:46:14;;;;;;;2.27;2.07;;;;;;;5.44;94.13;101635.19;6063437;29;20309;-79
2022/12/06 04:49:37;;;;;;;1.17;1.10;;;;;;;5.41;94.31;101639.81;6060482;29;20241;-79
2022/12/06 04:52:58;;;;;;;3.53;2.33;;;;;;;5.32;94.59;101643.84;6064718;29;20261;-79
2022/12/06 04:56:19;;;;;;;1.67;1.57;;;;;;;5.32;94.70;101633.16;6055454;29;20270;-79
2022/12/06 04:59:43;;;;;;;1.93;1.73;;;;;;;5.28;94.82;101633.41;6075756;29;20233;-79
2022/12/06 05:03:05;;;;;;;7.87;5.80;;;;;;;5.29;95.00;101630.66;6057830;29;20237;-79
2022/12/06 05:06:28;;;;;;;16.40;4.90;;;;;;;5.38;94.52;101632.81;6059909;29;20269;-79
2022/12/06 05:09:50;;;;;;;9.00;6.73;;;;;;;5.39;95.07;101636.34;6066637;29;20532;-78
2022/12/06 05:13:11;;;;;;;8.43;6.53;;;;;;;5.41;94.41;101631.78;6057131;29;20225;-80
2022/12/06 05:16:32;;;;;;;9.53;6.70;;;;;;;5.50;93.85;101629.47;6062023;29;20300;-79
2022/12/06 05:19:53;;;;;;;2.73;2.53;;;;;;;5.44;93.89;101631.63;6063719;29;20257;-79
2022/12/06 05:23:16;;;;;;;3.00;2.10;;;;;;;5.45;93.51;101633.34;6064692;29;20771;-79
2022/12/06 05:26:37;;;;;;;1.60;1.50;;;;;;;5.42;94.07;101638.88;6061759;29;20385;-80
2022/12/06 05:29:58;;;;;;;2.03;1.93;;;;;;;5.45;93.96;101638.69;6062185;29;20222;-79
2022/12/06 05:33:19;;;;;;;1.93;1.77;;;;;;;5.44;93.90;101642.31;6065118;29;20256;-79
2022/12/06 05:36:40;;;;;;;2.63;2.07;;;;;;;5.43;93.67;101643.25;6058474;29;20241;-80
2022/12/06 05:40:03;;;;;;;1.47;1.30;;;;;;;5.42;93.86;101634.38;6054477;29;20229;-79
2022/12/06 05:43:24;;;;;;;2.53;2.00;;;;;;;5.38;94.17;101629.28;6073454;29;20614;-80
2022/12/06 05:46:45;;;;;;;2.13;1.50;;;;;;;5.33;94.77;101637.56;6068298;29;20228;-79
2022/12/06 05:50:07;;;;;;;7.03;1.93;;;;;;;5.25;94.64;101634.44;6055997;29;20734;-79
2022/12/06 05:53:29;;;;;;;1.90;1.70;;;;;;;5.24;95.21;101635.38;6066044;29;20276;-79
2022/12/06 05:56:51;;;;;;;1.37;1.27;;;;;;;5.19;95.43;101639.25;6067187;29;20240;-79
2022/12/06 06:00:14;;;;;;;1.67;1.57;;;;;;;5.18;95.38;101634.84;6056128;29;20253;-80
2022/12/06 06:03:38;;;;;;;2.60;1.80;;;;;;;5.31;95.54;101633.25;6065276;29;20240;-79
2022/12/06 06:06:59;;;;;;;1.13;1.10;;;;;;;5.21;95.96;101632.03;6062357;29;20606;-78
2022/12/06 06:10:21;;;;;;;1.77;1.67;;;;;;;5.24;95.60;101637.19;6038544;29;20801;-75
2022/12/06 06:13:43;;;;;;;2.07;1.57;;;;;;;5.11;95.96;101634.31;6065652;29;20562;-81
2022/12/06 06:17:04;;;;;;;2.27;1.37;;;;;;;5.05;96.65;101633.81;6057680;29;20627;-81
2022/12/06 06:20:25;;;;;;;1.20;1.10;;;;;;;5.18;96.29;101625.03;6052696;29;20719;-80
2022/12/06 06:23:46;;;;;;;1.40;1.30;;;;;;;5.23;96.01;101625.66;6066226;29;20624;-81
2022/12/06 06:27:08;;;;;;;1.57;1.47;;;;;;;5.29;96.07;101625.31;6062106;29;20233;-80
2022/12/06 06:30:33;;;;;;;1.00;1.00;;;;;;;5.30;95.99;101628.88;6048856;29;20244;-81
2022/12/06 06:33:54;;;;;;;2.03;1.30;;;;;;;5.30;95.08;101631.53;6065317;29;20254;-82
2022/12/06 06:37:16;;;;;;;1.47;1.20;;;;;;;5.15;95.47;101635.03;6062897;29;20225;-82
2022/12/06 06:40:37;;;;;;;7.53;5.87;;;;;;;5.18;95.32;101645.53;6055914;29;20229;-82
2022/12/06 06:43:58;;;;;;;2.23;1.53;;;;;;;5.16;95.35;101642.97;6065848;29;20567;-81
2022/12/06 06:47:20;;;;;;;1.97;1.50;;;;;;;5.16;95.39;101653.66;6067393;29;20237;-80
2022/12/06 06:50:41;;;;;;;0.97;0.93;;;;;;;5.20;95.46;101643.66;6051006;29;20237;-81
2022/12/06 06:54:02;;;;;;;1.50;1.40;;;;;;;5.22;95.25;101647.09;6064055;29;20292;-80
2022/12/06 06:57:24;;;;;;;2.20;2.00;;;;;;;5.10;95.45;101656.66;6063889;29;20229;-80
2022/12/06 07:00:45;;;;;;;2.47;1.70;;;;;;;5.05;95.53;101652.50;6053026;29;20576;-80
2022/12/06 07:04:07;;;;;;;1.97;1.50;;;;;;;5.08;96.05;101655.88;6064537;29;20237;-80
2022/12/06 07:07:28;;;;;;;1.23;1.17;;;;;;;5.06;95.52;101655.09;6051767;29;20236;-80
2022/12/06 07:10:49;;;;;;;4.33;2.60;;;;;;;5.09;95.59;101654.06;6042960;29;20244;-81
2022/12/06 07:14:10;;;;;;;1.60;1.50;;;;;;;5.09;95.16;101654.91;6067702;29;20510;-81
2022/12/06 07:17:31;;;;;;;2.17;1.63;;;;;;;5.12;94.87;101654.75;6065320;29;20562;-81
2022/12/06 07:21:03;;;;;;;2.03;1.33;;;;;;;5.09;95.02;101651.41;6059469;29;20323;-82
2022/12/06 07:24:24;;;;;;;1.87;1.67;;;;;;;5.06;94.88;101657.75;6068614;29;20232;-82
2022/12/06 07:27:47;;;;;;;1.80;1.70;;;;;;;5.05;95.10;101657.84;6063886;29;20229;-81
2022/12/06 07:31:09;;;;;;;1.93;1.83;;;;;;;5.07;94.86;101656.81;6065606;29;20233;-81
2022/12/06 07:34:30;;;;;;;1.60;1.50;;;;;;;5.05;94.71;101660.53;6056257;29;20257;-81
2022/12/06 07:37:54;;;;;;;1.57;1.47;;;;;;;5.09;94.89;101662.09;6067271;29;20237;-81
2022/12/06 07:45:06;;;;;;;1.60;1.50;;;;;;;5.08;94.82;101657.69;6070735;29;20796;-81
2022/12/06 07:48:27;;;;;;;1.60;1.47;;;;;;;5.02;94.74;101664.22;6071126;29;20236;-83
2022/12/06 07:51:48;;;;;;;2.40;1.50;;;;;;;5.03;94.86;101662.41;6067165;29;20265;-82
2022/12/06 07:55:12;;;;;;;1.80;1.70;;;;;;;5.08;94.53;101655.88;6068367;29;20218;-80
2022/12/06 07:58:33;;;;;;;3.80;2.10;;;;;;;5.07;94.23;101654.13;6072682;29;20253;-82
2022/12/06 08:01:54;;;;;;;1.50;1.40;;;;;;;5.07;94.30;101653.28;6069476;29;20233;-81
2022/12/06 08:05:15;;;;;;;2.10;1.70;;;;;;;5.05;94.40;101658.69;6073880;29;20244;-81
2022/12/06 08:08:37;;;;;;;2.30;1.93;;;;;;;5.12;94.36;101660.09;6068823;29;20238;-82
2022/12/06 08:12:00;;;;;;;1.47;1.37;;;;;;;5.13;94.21;101667.16;6059488;29;20229;-82
2022/12/06 08:15:21;;;;;;;4.47;4.07;;;;;;;5.10;93.89;101671.81;6063173;29;20290;-81
2022/12/06 08:18:43;;;;;;;4.73;3.97;;;;;;;5.13;93.68;101675.19;6069245;29;20233;-83
2022/12/06 08:22:04;;;;;;;3.70;3.17;;;;;;;5.14;93.49;101674.25;6068090;29;20535;-81
2022/12/06 08:25:26;;;;;;;2.13;1.93;;;;;;;5.19;93.32;101674.00;6061225;29;20251;-82
2022/12/06 08:28:48;;;;;;;2.17;1.97;;;;;;;5.26;93.14;101684.28;6070280;29;20237;-81
2022/12/06 08:32:11;;;;;;;2.67;2.27;;;;;;;5.30;93.08;101679.66;6065590;29;20237;-83
2022/12/06 08:35:32;;;;;;;1.90;1.80;;;;;;;5.31;92.94;101676.00;6065346;29;20229;-82
2022/12/06 08:38:55;;;;;;;2.40;1.77;;;;;;;5.32;93.16;101678.59;6064250;29;20225;-81
2022/12/06 08:42:16;;;;;;;4.73;3.83;;;;;;;5.31;92.36;101679.56;6079918;29;20236;-81
2022/12/06 08:45:38;;;;;;;2.63;2.50;;;;;;;5.26;92.20;101675.38;6060835;29;20229;-80
2022/12/06 08:49:00;;;;;;;2.87;2.37;;;;;;;5.14;92.06;101682.25;6068383;29;20229;-83
2022/12/06 08:52:21;;;;;;;2.13;1.90;;;;;;;5.17;92.54;101681.25;6073111;29;20263;-83
2022/12/06 08:55:42;;;;;;;2.83;2.53;;;;;;;5.15;92.50;101692.03;6071860;29;20233;-82
2022/12/06 08:59:03;;;;;;;1.47;1.37;;;;;;;5.08;92.63;101689.75;6068845;29;20249;-81
2022/12/06 09:02:26;;;;;;;3.87;3.03;;;;;;;5.06;92.33;101688.97;6063400;29;20238;-81
2022/12/06 09:05:47;;;;;;;3.23;2.87;;;;;;;5.13;92.03;101693.88;6068949;29;20607;-80
2022/12/06 09:09:10;;;;;;;2.43;2.23;;;;;;;5.18;92.40;101686.50;6072573;29;20237;-82
2022/12/06 09:12:32;;;;;;;3.83;3.27;;;;;;;5.16;91.99;101696.41;6077930;29;20642;-80
2022/12/06 09:15:52;;;;;;;8.93;7.10;;;;;;;5.21;91.98;101694.38;6075610;29;20237;-81
2022/12/06 09:19:15;;;;;;;5.30;4.43;;;;;;;5.20;91.45;101695.28;6070213;29;20229;-81
2022/12/06 09:22:36;;;;;;;2.40;1.90;;;;;;;5.15;92.03;101699.16;6063536;29;20249;-82
2022/12/06 09:25:57;;;;;;;4.03;2.37;;;;;;;5.17;91.52;101703.50;6063397;29;20260;-81
2022/12/06 09:29:19;;;;;;;2.47;2.07;;;;;;;5.12;91.56;101697.53;6064668;29;20242;-81
2022/12/06 09:32:41;;;;;;;3.37;2.40;;;;;;;5.13;91.51;101704.56;6082800;29;20548;-82
2022/12/06 09:36:07;;;;;;;2.60;2.40;;;;;;;5.11;91.87;101705.63;6079300;29;20225;-82
2022/12/06 09:39:32;;;;;;;6.50;2.93;;;;;;;5.13;91.59;101701.06;6070326;29;20623;-82
2022/12/06 09:43:06;;;;;;;5.97;3.23;;;;;;;5.08;91.61;101698.63;6075340;29;20281;-83
2022/12/06 09:46:41;;;;;;;3.57;2.60;;;;;;;4.96;91.63;101703.75;6073664;29;20233;-80
2022/12/06 09:50:14;;;;;;;3.00;2.40;;;;;;;4.96;91.78;101691.28;6057660;29;20237;-79
2022/12/06 09:53:53;;;;;;;4.70;2.80;;;;;;;5.04;91.22;101698.88;6064330;29;20813;-79
2022/12/06 09:57:20;;;;;;;2.40;2.20;;;;;;;5.12;90.73;101689.50;6065904;29;20233;-82
2022/12/06 10:00:46;;;;;;;4.07;2.63;;;;;;;5.26;90.25;101692.28;6073035;29;20238;-81
2022/12/06 10:04:41;;;;;;;3.07;2.33;;;;;;;5.20;89.94;101684.59;6069378;29;20241;-82
2022/12/06 10:08:13;;;;;;;3.30;2.70;;;;;;;5.25;89.97;101693.25;6062564;29;20232;-81
2022/12/06 10:11:55;;;;;;;3.50;2.43;;;;;;;5.31;90.16;101690.25;6063173;29;20484;-79
2022/12/06 10:15:27;;;;;;;4.23;2.67;;;;;;;5.28;89.92;101686.84;6065247;29;20237;-81
2022/12/06 10:19:03;;;;;;;3.23;2.80;;;;;;;5.27;90.25;101683.34;6067481;29;20603;-82
2022/12/06 10:22:40;;;;;;;2.73;2.47;;;;;;;5.19;90.43;101685.56;6063033;29;20233;-81
2022/12/06 10:26:09;;;;;;;3.73;3.30;;;;;;;5.31;90.06;101686.72;6064275;29;20362;-82
2022/12/06 10:29:45;;;;;;;4.47;3.33;;;;;;;5.33;89.54;101685.69;6070601;29;20240;-82
2022/12/06 10:33:24;;;;;;;2.90;2.70;;;;;;;5.36;89.49;101682.00;6064310;29;20230;-83
2022/12/06 10:36:58;;;;;;;4.53;3.73;;;;;;;5.20;89.66;101681.94;6069125;29;20229;-82
2022/12/06 10:40:26;;;;;;;3.60;2.60;;;;;;;5.20;89.94;101686.41;6064790;29;20314;-83
2022/12/06 10:43:52;;;;;;;3.10;2.80;;;;;;;5.23;89.93;101683.59;6071428;29;20549;-82
2022/12/06 10:47:21;;;;;;;2.40;2.20;;;;;;;5.29;89.48;101688.59;6063660;29;20229;-83
2022/12/06 10:50:46;;;;;;;4.17;3.17;;;;;;;5.27;89.77;101679.81;6071413;29;20441;-82
2022/12/06 10:54:22;;;;;;;6.77;6.10;;;;;;;5.25;89.80;101679.03;6072118;29;20237;-80
2022/12/06 10:57:48;;;;;;;4.13;2.90;;;;;;;5.21;89.14;101683.69;6063708;29;20281;-83
2022/12/06 11:01:15;;;;;;;4.23;3.03;;;;;;;5.20;89.65;101675.72;6064846;29;20233;-83
2022/12/06 11:04:42;;;;;;;4.60;3.93;;;;;;;5.14;89.70;101671.56;6071666;29;20237;-81
2022/12/06 11:08:12;;;;;;;3.70;3.40;;;;;;;4.94;90.60;101666.44;6066742;29;20242;-82
2022/12/06 11:11:36;;;;;;;6.27;5.20;;;;;;;4.98;90.52;101670.69;6070579;29;20229;-81
2022/12/06 11:15:02;;;;;;;5.90;4.00;;;;;;;5.03;90.75;101673.09;6073626;29;20229;-82
2022/12/06 11:18:28;;;;;;;3.53;2.70;;;;;;;5.14;91.32;101674.25;6076453;29;20240;-81
2022/12/06 11:21:54;;;;;;;4.37;3.53;;;;;;;5.13;90.33;101666.31;6074818;29;20241;-83
2022/12/06 11:25:23;;;;;;;4.03;2.87;;;;;;;5.10;89.54;101667.34;6074700;29;20236;-82
2022/12/06 11:29:02;;;;;;;6.37;4.17;;;;;;;5.24;89.82;101663.91;6078489;29;20224;-83
2022/12/06 11:32:24;;;;;;;5.33;3.43;;;;;;;5.12;90.02;101656.56;6087745;29;20233;-83
2022/12/06 11:35:46;;;;;;;4.23;3.30;;;;;;;5.15;90.15;101651.06;6070271;29;20315;-82
2022/12/06 11:39:12;;;;;;;3.77;3.47;;;;;;;5.13;89.65;101651.13;6075244;29;20229;-82
2022/12/06 11:42:33;;;;;;;4.07;3.37;;;;;;;5.30;89.23;101644.91;6075981;29;20324;-81
2022/12/06 11:45:55;;;;;;;5.27;3.10;;;;;;;5.17;89.26;101643.84;6072539;29;20237;-81
2022/12/06 11:49:28;;;;;;;4.33;3.97;;;;;;;5.16;89.23;101642.97;6070043;29;20236;-82
2022/12/06 11:52:54;;;;;;;3.57;3.27;;;;;;;5.24;89.07;101634.50;6069576;29;20225;-82
2022/12/06 11:56:23;;;;;;;4.50;3.73;;;;;;;5.22;89.33;101631.06;6070990;29;20229;-82
2022/12/06 12:00:10;;;;;;;4.00;3.00;;;;;;;5.27;89.37;101629.88;6074036;29;20240;-83
2022/12/06 12:03:36;;;;;;;4.70;3.70;;;;;;;5.14;90.02;101628.81;6073100;29;20236;-82
2022/12/06 12:06:59;;;;;;;5.53;3.57;;;;;;;5.13;90.07;101631.59;6074491;29;20229;-82
2022/12/06 12:10:29;;;;;;;5.70;3.53;;;;;;;5.11;90.50;101630.81;6075858;29;20293;-80
2022/12/06 12:13:54;;;;;;;8.97;5.57;;;;;;;5.14;90.18;101622.59;6075382;29;20537;-82
2022/12/06 12:17:19;;;;;;;4.80;3.30;;;;;;;5.11;90.10;101615.59;6083981;29;20545;-82
2022/12/06 12:20:46;;;;;;;4.97;3.47;;;;;;;5.05;90.33;101615.09;6069122;29;20237;-81
2022/12/06 12:24:46;;;;;;;5.27;4.27;;;;;;;5.06;90.96;101620.38;6069778;29;20229;-82
2022/12/06 12:28:24;;;;;;;5.40;3.83;;;;;;;5.08;90.68;101607.78;6064719;29;20233;-82
2022/12/06 12:31:53;;;;;;;5.13;4.00;;;;;;;5.02;90.42;101612.59;6066478;29;20225;-81
2022/12/06 12:35:27;;;;;;;4.63;4.00;;;;;;;5.06;90.77;101608.81;6071043;29;20237;-81
2022/12/06 12:38:55;;;;;;;6.47;4.37;;;;;;;5.07;90.29;101607.88;6076525;29;20237;-82
2022/12/06 12:42:27;;;;;;;7.73;4.17;;;;;;;5.01;90.00;101600.16;6059904;29;20245;-83
2022/12/06 12:46:16;;;;;;;4.00;2.93;;;;;;;5.00;90.14;101601.13;6058092;29;20611;-80
2022/12/06 12:49:39;;;;;;;5.13;3.33;;;;;;;4.96;89.83;101604.91;6070603;29;20241;-81
2022/12/06 12:53:01;;;;;;;2.73;2.53;;;;;;;4.88;89.91;101607.13;6058493;29;20249;-82
2022/12/06 12:56:22;;;;;;;3.07;2.70;;;;;;;4.81;90.13;101604.78;6059372;29;20229;-83
2022/12/06 12:59:45;;;;;;;2.77;2.20;;;;;;;4.76;89.99;101601.50;6060806;29;20237;-82
2022/12/06 13:03:12;;;;;;;2.10;1.70;;;;;;;4.83;90.01;101597.56;6066180;29;20321;-81
2022/12/06 13:06:40;;;;;;;2.63;2.43;;;;;;;4.70;90.42;101588.47;6066573;29;20260;-82
2022/12/06 13:10:04;;;;;;;3.47;2.47;;;;;;;4.65;90.26;101593.19;6078018;29;20236;-83
2022/12/06 13:13:28;;;;;;;2.70;2.50;;;;;;;4.68;90.33;101589.47;6076535;29;20230;-83
2022/12/06 13:16:53;;;;;;;3.20;2.27;;;;;;;4.71;89.81;101595.50;6065791;29;20237;-82
2022/12/06 13:20:23;;;;;;;3.87;2.10;;;;;;;4.67;90.26;101593.97;6066282;29;20245;-82
2022/12/06 13:23:49;;;;;;;2.20;2.00;;;;;;;4.73;90.06;101593.66;6064257;29;20248;-83
2022/12/06 13:27:16;;;;;;;2.70;1.77;;;;;;;4.64;90.56;101591.47;6067362;29;20229;-82
2022/12/06 13:30:40;;;;;;;2.03;1.93;;;;;;;4.60;90.62;101587.22;6078995;29;20233;-83
2022/12/06 13:34:06;;;;;;;2.23;2.10;;;;;;;4.66;90.74;101591.38;6069735;29;20237;-83
2022/12/06 13:37:33;;;;;;;2.57;2.03;;;;;;;4.59;90.97;101590.84;6070393;29;20332;-83
2022/12/06 13:40:56;;;;;;;2.23;2.03;;;;;;;4.58;89.79;101586.44;6064126;29;20237;-82
2022/12/06 13:44:39;;;;;;;3.00;1.70;;;;;;;4.62;89.27;101590.69;6065806;29;20245;-83
2022/12/06 13:48:00;;;;;;;3.67;2.00;;;;;;;4.63;88.79;101595.06;6056692;29;20245;-83
2022/12/06 13:51:43;;;;;;;4.03;2.50;;;;;;;4.66;88.57;101600.25;6071010;29;20233;-81
2022/12/06 13:55:38;;;;;;;2.70;2.20;;;;;;;4.63;89.01;101597.72;6061925;29;20245;-82
2022/12/06 13:59:05;;;;;;;7.40;6.67;;;;;;;4.70;88.87;101587.59;6071562;29;20642;-82
2022/12/06 14:02:46;;;;;;;3.10;2.70;;;;;;;4.69;88.46;101589.41;6068788;29;20462;-82
2022/12/06 14:06:09;;;;;;;2.97;2.17;;;;;;;4.77;88.29;101592.56;6064644;29;20237;-82
2022/12/06 14:09:41;;;;;;;4.83;2.00;;;;;;;4.70;87.36;101592.94;6065865;29;20237;-81
2022/12/06 14:13:03;;;;;;;3.40;2.53;;;;;;;4.61;87.27;101588.09;6061784;29;20230;-81
2022/12/06 14:16:33;;;;;;;3.27;2.20;;;;;;;4.74;87.32;101586.47;6070308;29;20297;-82
2022/12/06 14:19:54;;;;;;;2.80;2.60;;;;;;;4.73;86.84;101577.63;6063588;29;20582;-82
2022/12/06 14:23:23;;;;;;;5.33;2.90;;;;;;;4.70;86.53;101580.47;6063991;29;20639;-80
2022/12/06 14:26:47;;;;;;;3.27;2.67;;;;;;;4.74;86.99;101579.34;6066906;29;20232;-79
2022/12/06 14:30:17;;;;;;;3.87;2.43;;;;;;;4.74;87.11;101578.47;6065881;29;20237;-82
2022/12/06 14:33:40;;;;;;;4.77;2.70;;;;;;;4.68;87.10;101576.13;6069616;29;20237;-81
2022/12/06 14:37:12;;;;;;;4.77;3.13;;;;;;;4.77;86.96;101576.53;6068519;29;20631;-81
2022/12/06 14:44:15;;;;;;;3.13;2.87;;;;;;;4.84;86.92;101566.34;6066819;29;20308;-82
2022/12/06 14:47:36;;;;;;;2.73;2.00;;;;;;;4.82;87.12;101569.09;6065805;29;20300;-80
2022/12/06 14:51:02;;;;;;;1.87;1.77;;;;;;;4.76;86.29;101566.78;6050974;29;20323;-80
2022/12/06 14:54:34;;;;;;;2.50;2.03;;;;;;;4.75;86.62;101565.06;6063568;29;20234;-80
2022/12/06 14:57:58;;;;;;;2.17;2.07;;;;;;;4.75;85.75;101562.41;6060360;29;20233;-80
2022/12/06 15:01:21;;;;;;;3.73;2.70;;;;;;;4.64;85.43;101567.44;6052832;29;20584;-80
2022/12/06 15:04:42;;;;;;;2.30;2.10;;;;;;;4.69;84.70;101565.38;6054266;29;20817;-81
2022/12/06 15:08:32;;;;;;;2.27;1.90;;;;;;;4.67;84.53;101561.06;6042802;29;20809;-81
2022/12/06 15:16:14;;;;;;;2.50;2.30;;;;;;;4.59;83.81;101571.31;6052806;29;20534;-81
2022/12/06 15:19:37;;;;;;;1.70;1.60;;;;;;;4.58;83.75;101575.78;6054227;29;20225;-83
2022/12/06 15:22:58;;;;;;;2.87;2.53;;;;;;;4.58;83.61;101574.91;6056603;29;20229;-81
2022/12/06 15:26:22;;;;;;;1.70;1.60;;;;;;;4.57;83.20;101579.38;6058140;29;20249;-80
2022/12/06 15:29:43;;;;;;;4.13;3.63;;;;;;;4.54;81.41;101574.22;6057027;29;20659;-81
2022/12/06 15:33:04;;;;;;;5.37;2.43;;;;;;;4.54;81.15;101566.19;6056277;29;20229;-79
2022/12/06 15:36:29;;;;;;;2.57;1.97;;;;;;;4.50;80.94;101572.66;6060271;29;20229;-80
2022/12/06 15:39:50;;;;;;;2.13;2.03;;;;;;;4.46;79.81;101565.75;6051545;29;20244;-81
2022/12/06 15:43:31;;;;;;;2.33;2.03;;;;;;;4.32;80.62;101568.25;6056125;29;20237;-80
2022/12/06 15:46:53;;;;;;;2.67;2.47;;;;;;;4.32;81.30;101562.91;6040286;29;20632;-80
2022/12/06 15:50:17;;;;;;;3.83;2.93;;;;;;;4.25;81.55;101568.66;6057452;29;20325;-80
2022/12/06 15:53:38;;;;;;;3.50;3.13;;;;;;;4.08;81.46;101569.53;6053840;29;20246;-79
2022/12/06 15:56:58;;;;;;;2.33;2.00;;;;;;;3.97;82.48;101564.72;6049090;29;20230;-77
2022/12/06 16:00:21;;;;;;;2.27;2.17;;;;;;;3.93;82.85;101570.28;6054026;29;20241;-77
2022/12/06 16:03:42;;;;;;;2.60;2.40;;;;;;;3.89;82.96;101574.94;6064626;29;20230;-79
2022/12/06 16:07:03;;;;;;;2.57;1.93;;;;;;;3.79;83.27;101578.13;6060121;29;20853;-78
2022/12/06 16:10:24;;;;;;;2.33;2.23;;;;;;;3.74;83.42;101586.34;6063028;29;20325;-78
2022/12/06 16:13:45;;;;;;;3.70;1.90;;;;;;;3.72;83.79;101574.03;6061400;29;20229;-78
2022/12/06 16:17:08;;;;;;;1.80;1.70;;;;;;;3.59;83.94;101573.75;6062585;29;20247;-79
2022/12/06 16:20:31;;;;;;;2.50;2.13;;;;;;;3.49;83.94;101568.94;6063696;29;20257;-77
2022/12/06 16:24:03;;;;;;;2.20;2.03;;;;;;;3.46;84.42;101574.44;6068454;29;20264;-78
2022/12/06 16:27:24;;;;;;;2.43;2.23;;;;;;;3.43;84.07;101578.13;6062782;29;20659;-80
2022/12/06 16:30:45;;;;;;;1.87;1.60;;;;;;;3.36;84.01;101578.50;6064987;29;20344;-79
2022/12/06 16:34:08;;;;;;;2.33;2.03;;;;;;;3.39;84.25;101576.53;6062558;29;20234;-79
2022/12/06 16:37:31;;;;;;;4.27;2.63;;;;;;;3.41;83.80;101566.66;6063575;29;20301;-80
2022/12/06 16:40:52;;;;;;;4.63;1.83;;;;;;;3.38;83.95;101571.28;6064841;29;20237;-81